Flight Track Log - Related Links

Times and Time Zones

All times are in EDT time to prevent confusion due to time zone crossing. See the SWA662 flight status page for this flight to view local times or setup timezone preferences in your user account.

Time Position Orientation Groundspeed Altitude Reporting Facility
EDT Latitude Longitude Course Direction KTS MPH feet Rate Location/Type
11:38PM 33.9458 -118.4433 58° Northeast 172 198 1,200  Level Los Angeles Center
11:40PM 33.9386 -118.5219 264° West 219 252 3,400 2,735 Climbing Los Angeles Center
11:41PM 33.8817 -118.5706 215° Southwest 244 281 7,400 3,024 Climbing Los Angeles Center
11:42PM 33.8778 -118.4881 93° East 283 326 9,600 1,805 Climbing Los Angeles Center
11:43PM 33.9439 -118.4158 42° Northeast 327 376 11,100 1,805 Climbing Los Angeles Center
11:44PM 34.2765 -117.7664 58° Northeast  Level Estimated
11:44PM 34.0050 -118.3064 56° Northeast 386 444 13,300  Level Los Angeles Center
11:45PM 34.0700 -118.1919 56° Northeast 404 465 15,300 1,935 Climbing Los Angeles Center
11:46PM 34.1394 -118.0706 55° Northeast 426 490 17,300 1,951 Climbing Los Angeles Center
11:47PM 34.2100 -117.9442 56° Northeast 445 512 19,300 1,951 Climbing Los Angeles Center
11:48PM 34.2831 -117.8128 56° Northeast 461 531 21,300 1,839 Climbing Los Angeles Center
11:49PM 34.3592 -117.6769 56° Northeast 478 550 23,100 1,707 Climbing Los Angeles Center
11:50PM 34.4397 -117.5308 56° Northeast 493 567 24,800 1,561 Climbing Los Angeles Center
11:51PM 34.5183 -117.3886 56° Northeast 510 587 26,300 1,548 Climbing Los Angeles Center
11:52PM 34.6136 -117.2144 56° Northeast 519 597 28,000 1,463 Climbing Los Angeles Center
11:53PM 34.6947 -117.0669 56° Northeast 528 608 29,300 1,463 Climbing Los Angeles Center
11:54PM 34.7764 -116.9164 57° Northeast 536 617 31,000 1,512 Climbing Los Angeles Center
11:55PM 34.8567 -116.7681 57° Northeast 529 609 32,400 1,463 Climbing Los Angeles Center
11:56PM 34.9378 -116.6189 56° Northeast 529 609 34,000 1,403 Climbing Los Angeles Center
11:57PM 35.0319 -116.4861 49° Northeast 521 600 35,300 1,024 Climbing Los Angeles Center
11:58PM 35.1111 -116.3886 45° Northeast 512 589 36,100 829 Climbing Los Angeles Center
11:59PM 35.2531 -116.2133 45° Northeast 518 596 37,000 439 Climbing Los Angeles Center
12:00AM 35.3514 -116.0864 46° Northeast 516 594 37,000  Level Los Angeles Center
12:01AM 35.4519 -115.9603 46° Northeast 519 597 37,000  Level Los Angeles Center
12:02AM 35.5331 -115.8156 55° Northeast 524 603 37,000  Level Los Angeles Center
12:03AM 35.5983 -115.6519 64° Northeast 531 611 37,000  Level Los Angeles Center
12:04AM 35.6503 -115.5225 64° Northeast 530 610 37,000  Level Los Angeles Center
12:05AM 35.7406 -115.2961 64° Northeast 529 609 37,000  Level Los Angeles Center
12:06AM 35.8017 -115.1392 64° Northeast 516 594 37,000  Level Los Angeles Center
12:07AM 35.8644 -114.9781 64° Northeast 523 602 37,000  Level Los Angeles Center
12:08AM 35.9158 -114.8478 64° Northeast 528 608 37,000  Level Los Angeles Center
12:09AM 35.9919 -114.6544 64° Northeast 526 605 37,000  Level Los Angeles Center
12:10AM 36.0550 -114.4931 64° Northeast 525 604 37,000  Level Los Angeles Center
12:11AM 36.1181 -114.3300 64° Northeast 527 606 37,000  Level Los Angeles Center
12:12AM 36.1936 -114.1328 65° Northeast 529 609 37,000  Level Los Angeles Center
12:13AM 36.2561 -113.9689 65° Northeast 528 608 37,000  Level Los Angeles Center
12:14AM 36.3178 -113.8064 65° Northeast 525 604 37,000  Level Los Angeles Center
12:15AM 36.3792 -113.6439 65° Northeast 523 602 37,000  Level Los Angeles Center
12:16AM 36.4414 -113.4822 64° Northeast 521 600 37,000  Level Los Angeles Center
12:17AM 36.5033 -113.3122 66° East 520 598 37,000  Level Los Angeles Center
12:18AM 36.5642 -113.1511 65° Northeast 518 596 37,000  Level Los Angeles Center
12:19AM 36.6239 -112.9894 65° Northeast 518 596 37,000  Level Los Angeles Center
12:21AM 36.6833 -112.8281 65° Northeast 516 594 37,000  Level Los Angeles Center
12:22AM 36.7556 -112.6342 65° Northeast 517 595 37,000  Level Los Angeles Center
12:23AM 36.8144 -112.4731 65° Northeast 516 594 37,000  Level Los Angeles Center
12:24AM 36.8733 -112.3108 66° East 516 594 37,000  Level Los Angeles Center
12:25AM 36.9328 -112.1475 65° Northeast 519 597 37,000  Level Los Angeles Center
12:26AM 36.9911 -111.9850 66° East 517 595 37,000  Level Los Angeles Center
12:27AM 37.0506 -111.8214 65° Northeast 519 597 37,000  Level Los Angeles Center
12:28AM 37.1083 -111.6567 66° East 519 597 37,000  Level Los Angeles Center
12:28AM 37.1558 -111.5256 66° East 519 597 37,000  Level Denver Center
12:29AM 37.2119 -111.3631 67° East 513 590 37,000 49 Level Denver Center
12:30AM 37.2678 -111.1986 67° East 514 592 37,100 492 Climbing Denver Center
12:31AM 37.3253 -111.0350 66° East 514 592 38,000 934 Climbing Denver Center
12:32AM 37.3817 -110.8747 66° East 506 582 39,000 488 Climbing Denver Center
12:34AM 37.4483 -110.6811 67° East 505 581 39,000  Level Denver Center
12:35AM 37.5031 -110.5194 67° East 508 585 39,000  Level Denver Center
12:36AM 37.5639 -110.3406 67° East 499 574 39,000  Level Denver Center
12:37AM 37.6242 -110.1608 67° East 498 573 39,000  Level Denver Center
12:38AM 37.6753 -110.0053 67° East 502 578 39,000  Level Denver Center
12:39AM 37.7361 -109.8247 67° East 500 575 39,000  Level Denver Center
12:40AM 37.7878 -109.6697 67° East 500 575 39,000  Level Denver Center
12:41AM 37.8400 -109.5158 67° East 497 572 39,000  Level Denver Center
12:42AM 37.8983 -109.3336 68° East 500 575 39,000  Level Denver Center
12:43AM 37.9492 -109.1789 67° East 497 572 39,000  Level Denver Center
12:44AM 38.0000 -109.0247 67° East 496 571 39,000  Level Denver Center
12:45AM 38.0583 -108.8433 68° East 496 571 39,000  Level Denver Center
12:46AM 38.1211 -108.6444 68° East 504 580 39,000  Level Denver Center
12:47AM 38.1706 -108.4919 68° East 494 568 39,000  Level Denver Center
12:48AM 38.2272 -108.3125 68° East 491 565 39,000  Level Denver Center
12:49AM 38.2847 -108.1306 68° East 495 570 39,000  Level Denver Center
12:50AM 38.3411 -107.9511 68° East 492 566 39,000  Level Denver Center
12:51AM 38.3883 -107.7972 69° East 488 562 39,000  Level Denver Center
12:52AM 38.4367 -107.6433 68° East 490 564 39,000  Level Denver Center
12:53AM 38.5061 -107.4733 62° Northeast 487 560 39,000  Level Denver Center
12:54AM 38.5711 -107.3289 60° Northeast 490 564 39,000 -148 Level Denver Center
12:56AM 38.6375 -107.1856 59° Northeast 492 566 38,700 -689 Descending Denver Center
12:57AM 38.7167 -107.0119 60° Northeast 494 568 37,600 -984 Descending Denver Center
12:58AM 38.7850 -106.8617 60° Northeast 491 565 36,700 -934 Descending Denver Center
12:59AM 38.8531 -106.7092 60° Northeast 493 567 35,700 -942 Descending Denver Center
01:00AM 38.9200 -106.5597 60° Northeast 484 557 34,800 -893 Descending Denver Center
01:01AM 38.9850 -106.4161 60° Northeast 484 557 33,900 -984 Descending Denver Center
01:02AM 39.0614 -106.2472 60° Northeast 488 562 32,800 -984 Descending Denver Center
01:03AM 39.1208 -106.1078 61° Northeast 489 563 31,900 -1,377 Descending Denver Center
01:04AM 39.1886 -105.9531 60° Northeast 495 570 30,000 -2,213 Descending Denver Center
01:05AM 39.2567 -105.8011 60° Northeast 492 566 27,400 -2,508 Descending Denver Center
01:06AM 39.3197 -105.6517 61° Northeast 481 554 24,900 -2,479 Descending Denver Center
01:07AM 39.3842 -105.5056 60° Northeast 471 542 22,400 -2,479 Descending Denver Center
01:08AM 39.4639 -105.3544 56° Northeast 442 509 19,900 -2,311 Descending Denver Center
01:09AM 39.5286 -105.2275 57° Northeast 415 478 17,700 -1,525 Descending Denver Center
01:10AM 39.5914 -105.1086 56° Northeast 398 458 16,800 -1,426 Descending Denver Center
01:11AM 39.6569 -104.9817 56° Northeast 386 444 14,800 -1,736 Descending Denver Center
01:12AM 39.7194 -104.8664 55° Northeast 392 451 13,300 -1,289 Descending Denver Center
01:13AM 39.8181 -104.8400 12° North 372 428 12,200 -1,377 Descending Denver Center
01:14AM 39.9139 -104.8375 North 339 390 10,500 -1,623 Descending Denver Center
01:15AM 39.9942 -104.8342 North 280 322 8,900 -1,388 Descending Denver Center
01:16AM 40.0281 -104.7808 50° Northeast 224 258 7,700 -942 Descending Denver Center
01:17AM 39.9914 -104.7278 132° Southeast 191 220 7,000 -689 Descending Denver Center
01:18AM 39.9517 -104.6969 149° Southeast 163 188 6,300 -689 Descending Denver Center
01:19AM 39.9114 -104.6958 179° South 145 167 5,600 -496 Descending Denver Center
01:20AM 39.8714 -104.6967 181° South 144 166 5,300 -300 Descending Denver Center
01:22AM 39.8617 -104.6732 180° South  Level Estimated
01:29AM 39.8617 -104.6732 180° South  Level Estimated
01:30AM 39.8617 -104.6732 180° South  Level Estimated

Login

Don't have an account? Register now (free) for customized features, flight alerts, and more!